sensor_id;sensor_type;location;lat;lon;timestamp;P1;durP1;ratioP1;P2;durP2;ratioP2
7557;SDS011;3820;51.098;13.716;2023-03-14T00:00:06;2.57;;;2.23;;
7557;SDS011;3820;51.098;13.716;2023-03-14T00:02:36;4.13;;;2.20;;
7557;SDS011;3820;51.098;13.716;2023-03-14T00:05:03;3.00;;;2.40;;
7557;SDS011;3820;51.098;13.716;2023-03-14T00:07:34;2.67;;;2.20;;
7557;SDS011;3820;51.098;13.716;2023-03-14T00:10:04;3.90;;;2.73;;
7557;SDS011;3820;51.098;13.716;2023-03-14T00:12:33;3.23;;;2.50;;
7557;SDS011;3820;51.098;13.716;2023-03-14T00:14:59;4.10;;;3.03;;
7557;SDS011;3820;51.098;13.716;2023-03-14T00:17:29;3.87;;;2.87;;
7557;SDS011;3820;51.098;13.716;2023-03-14T00:19:57;3.00;;;2.60;;
7557;SDS011;3820;51.098;13.716;2023-03-14T00:22:31;4.13;;;3.27;;
7557;SDS011;3820;51.098;13.716;2023-03-14T00:24:57;4.93;;;3.10;;
7557;SDS011;3820;51.098;13.716;2023-03-14T00:27:24;3.00;;;2.70;;
7557;SDS011;3820;51.098;13.716;2023-03-14T00:29:51;3.73;;;2.87;;
7557;SDS011;3820;51.098;13.716;2023-03-14T00:32:17;6.73;;;3.10;;
7557;SDS011;3820;51.098;13.716;2023-03-14T00:34:45;3.40;;;2.87;;
7557;SDS011;3820;51.098;13.716;2023-03-14T00:37:12;4.07;;;2.73;;
7557;SDS011;3820;51.098;13.716;2023-03-14T00:39:39;3.57;;;2.73;;
7557;SDS011;3820;51.098;13.716;2023-03-14T00:42:07;3.13;;;2.73;;
7557;SDS011;3820;51.098;13.716;2023-03-14T00:44:34;3.80;;;3.23;;
7557;SDS011;3820;51.098;13.716;2023-03-14T00:47:02;4.10;;;3.70;;
7557;SDS011;3820;51.098;13.716;2023-03-14T00:49:28;5.27;;;3.70;;
7557;SDS011;3820;51.098;13.716;2023-03-14T00:51:55;5.50;;;3.80;;
7557;SDS011;3820;51.098;13.716;2023-03-14T00:54:22;4.77;;;3.90;;
7557;SDS011;3820;51.098;13.716;2023-03-14T00:56:49;5.63;;;3.73;;
7557;SDS011;3820;51.098;13.716;2023-03-14T00:59:16;4.10;;;3.70;;
7557;SDS011;3820;51.098;13.716;2023-03-14T01:01:43;4.80;;;4.00;;
7557;SDS011;3820;51.098;13.716;2023-03-14T01:04:10;6.30;;;4.43;;
7557;SDS011;3820;51.098;13.716;2023-03-14T01:06:37;5.70;;;4.93;;
7557;SDS011;3820;51.098;13.716;2023-03-14T01:09:05;4.70;;;4.30;;
7557;SDS011;3820;51.098;13.716;2023-03-14T01:11:32;6.50;;;5.20;;
7557;SDS011;3820;51.098;13.716;2023-03-14T01:14:01;8.67;;;5.83;;
7557;SDS011;3820;51.098;13.716;2023-03-14T01:16:29;6.73;;;5.27;;
7557;SDS011;3820;51.098;13.716;2023-03-14T01:18:57;6.23;;;5.40;;
7557;SDS011;3820;51.098;13.716;2023-03-14T01:21:27;7.30;;;5.77;;
7557;SDS011;3820;51.098;13.716;2023-03-14T01:23:56;7.20;;;5.73;;
7557;SDS011;3820;51.098;13.716;2023-03-14T01:26:24;6.53;;;5.17;;
7557;SDS011;3820;51.098;13.716;2023-03-14T01:28:54;6.53;;;5.80;;
7557;SDS011;3820;51.098;13.716;2023-03-14T01:31:22;7.17;;;5.50;;
7557;SDS011;3820;51.098;13.716;2023-03-14T01:33:49;6.17;;;5.57;;
7557;SDS011;3820;51.098;13.716;2023-03-14T01:36:16;6.07;;;5.30;;
7557;SDS011;3820;51.098;13.716;2023-03-14T01:38:43;8.23;;;5.30;;
7557;SDS011;3820;51.098;13.716;2023-03-14T01:41:18;7.07;;;5.80;;
7557;SDS011;3820;51.098;13.716;2023-03-14T01:43:47;5.67;;;5.10;;
7557;SDS011;3820;51.098;13.716;2023-03-14T01:46:17;5.20;;;4.70;;
7557;SDS011;3820;51.098;13.716;2023-03-14T01:48:47;5.87;;;5.17;;
7557;SDS011;3820;51.098;13.716;2023-03-14T01:51:27;5.90;;;5.30;;
7557;SDS011;3820;51.098;13.716;2023-03-14T01:54:00;6.63;;;5.17;;
7557;SDS011;3820;51.098;13.716;2023-03-14T01:56:30;6.10;;;5.50;;
7557;SDS011;3820;51.098;13.716;2023-03-14T01:58:57;6.30;;;5.60;;
7557;SDS011;3820;51.098;13.716;2023-03-14T02:01:25;5.90;;;5.30;;
7557;SDS011;3820;51.098;13.716;2023-03-14T02:03:53;6.90;;;5.63;;
7557;SDS011;3820;51.098;13.716;2023-03-14T02:06:26;6.57;;;5.60;;
7557;SDS011;3820;51.098;13.716;2023-03-14T02:08:55;8.67;;;5.83;;
7557;SDS011;3820;51.098;13.716;2023-03-14T02:11:23;6.33;;;5.73;;
7557;SDS011;3820;51.098;13.716;2023-03-14T02:13:54;6.63;;;5.93;;
7557;SDS011;3820;51.098;13.716;2023-03-14T02:16:22;6.77;;;6.10;;
7557;SDS011;3820;51.098;13.716;2023-03-14T02:18:49;5.63;;;5.13;;
7557;SDS011;3820;51.098;13.716;2023-03-14T02:26:35;6.33;;;5.57;;
7557;SDS011;3820;51.098;13.716;2023-03-14T02:29:05;8.07;;;5.60;;
7557;SDS011;3820;51.098;13.716;2023-03-14T02:31:32;6.50;;;5.77;;
7557;SDS011;3820;51.098;13.716;2023-03-14T02:33:59;5.90;;;4.97;;
7557;SDS011;3820;51.098;13.716;2023-03-14T02:36:26;6.80;;;5.20;;
7557;SDS011;3820;51.098;13.716;2023-03-14T02:39:06;6.07;;;5.43;;
7557;SDS011;3820;51.098;13.716;2023-03-14T02:41:36;6.93;;;5.57;;
7557;SDS011;3820;51.098;13.716;2023-03-14T02:44:02;4.50;;;4.10;;
7557;SDS011;3820;51.098;13.716;2023-03-14T02:46:29;4.60;;;4.17;;
7557;SDS011;3820;51.098;13.716;2023-03-14T02:48:57;3.80;;;3.50;;
7557;SDS011;3820;51.098;13.716;2023-03-14T02:51:30;4.23;;;2.97;;
7557;SDS011;3820;51.098;13.716;2023-03-14T02:53:56;3.50;;;2.90;;
7557;SDS011;3820;51.098;13.716;2023-03-14T02:56:23;3.47;;;3.10;;
7557;SDS011;3820;51.098;13.716;2023-03-14T02:58:50;3.00;;;2.70;;
7557;SDS011;3820;51.098;13.716;2023-03-14T03:01:17;2.10;;;1.90;;
7557;SDS011;3820;51.098;13.716;2023-03-14T03:03:44;2.23;;;1.70;;
7557;SDS011;3820;51.098;13.716;2023-03-14T03:06:10;2.40;;;1.60;;
7557;SDS011;3820;51.098;13.716;2023-03-14T03:08:37;2.20;;;1.97;;
7557;SDS011;3820;51.098;13.716;2023-03-14T03:11:05;1.20;;;1.10;;
7557;SDS011;3820;51.098;13.716;2023-03-14T03:13:32;2.40;;;1.87;;
7557;SDS011;3820;51.098;13.716;2023-03-14T03:15:59;2.27;;;2.00;;
7557;SDS011;3820;51.098;13.716;2023-03-14T03:18:25;2.43;;;1.70;;
7557;SDS011;3820;51.098;13.716;2023-03-14T03:20:52;3.67;;;1.80;;
7557;SDS011;3820;51.098;13.716;2023-03-14T03:23:19;2.20;;;2.00;;
7557;SDS011;3820;51.098;13.716;2023-03-14T03:25:49;1.00;;;0.90;;
7557;SDS011;3820;51.098;13.716;2023-03-14T03:28:16;1.17;;;0.90;;
7557;SDS011;3820;51.098;13.716;2023-03-14T03:30:43;1.03;;;0.97;;
7557;SDS011;3820;51.098;13.716;2023-03-14T03:33:10;0.77;;;0.77;;
7557;SDS011;3820;51.098;13.716;2023-03-14T03:35:55;1.03;;;0.90;;
7557;SDS011;3820;51.098;13.716;2023-03-14T03:38:22;0.70;;;0.70;;
7557;SDS011;3820;51.098;13.716;2023-03-14T03:40:49;0.90;;;0.90;;
7557;SDS011;3820;51.098;13.716;2023-03-14T03:43:16;0.73;;;0.70;;
7557;SDS011;3820;51.098;13.716;2023-03-14T03:45:43;0.80;;;0.80;;
7557;SDS011;3820;51.098;13.716;2023-03-14T03:48:10;1.00;;;0.90;;
7557;SDS011;3820;51.098;13.716;2023-03-14T03:50:36;0.77;;;0.77;;
7557;SDS011;3820;51.098;13.716;2023-03-14T03:53:03;0.80;;;0.80;;
7557;SDS011;3820;51.098;13.716;2023-03-14T03:55:29;0.73;;;0.70;;
7557;SDS011;3820;51.098;13.716;2023-03-14T03:57:56;1.03;;;0.90;;
7557;SDS011;3820;51.098;13.716;2023-03-14T04:00:22;1.43;;;0.90;;
7557;SDS011;3820;51.098;13.716;2023-03-14T04:02:49;0.80;;;0.70;;
7557;SDS011;3820;51.098;13.716;2023-03-14T04:05:16;1.43;;;0.80;;
7557;SDS011;3820;51.098;13.716;2023-03-14T04:07:43;0.70;;;0.70;;
7557;SDS011;3820;51.098;13.716;2023-03-14T04:10:10;0.80;;;0.80;;
7557;SDS011;3820;51.098;13.716;2023-03-14T04:12:36;1.80;;;0.90;;
7557;SDS011;3820;51.098;13.716;2023-03-14T04:15:03;1.17;;;0.97;;
7557;SDS011;3820;51.098;13.716;2023-03-14T04:17:30;0.77;;;0.77;;
7557;SDS011;3820;51.098;13.716;2023-03-14T04:19:56;1.13;;;1.03;;
7557;SDS011;3820;51.098;13.716;2023-03-14T04:22:23;0.90;;;0.90;;
7557;SDS011;3820;51.098;13.716;2023-03-14T04:24:49;0.77;;;0.77;;
7557;SDS011;3820;51.098;13.716;2023-03-14T04:27:16;1.90;;;0.80;;
7557;SDS011;3820;51.098;13.716;2023-03-14T04:29:42;1.70;;;0.90;;
7557;SDS011;3820;51.098;13.716;2023-03-14T04:32:09;1.50;;;0.90;;
7557;SDS011;3820;51.098;13.716;2023-03-14T04:34:36;1.87;;;0.80;;
7557;SDS011;3820;51.098;13.716;2023-03-14T04:37:02;1.30;;;0.80;;
7557;SDS011;3820;51.098;13.716;2023-03-14T04:39:29;1.80;;;0.80;;
7557;SDS011;3820;51.098;13.716;2023-03-14T04:41:55;1.57;;;0.90;;
7557;SDS011;3820;51.098;13.716;2023-03-14T04:44:22;3.33;;;0.90;;
7557;SDS011;3820;51.098;13.716;2023-03-14T04:46:49;2.03;;;1.10;;
7557;SDS011;3820;51.098;13.716;2023-03-14T04:49:15;1.73;;;0.80;;
7557;SDS011;3820;51.098;13.716;2023-03-14T04:51:42;3.17;;;0.80;;
7557;SDS011;3820;51.098;13.716;2023-03-14T04:54:09;2.23;;;1.00;;
7557;SDS011;3820;51.098;13.716;2023-03-14T04:56:35;1.63;;;0.80;;
7557;SDS011;3820;51.098;13.716;2023-03-14T04:59:03;3.27;;;1.00;;
7557;SDS011;3820;51.098;13.716;2023-03-14T05:01:30;3.77;;;1.30;;
7557;SDS011;3820;51.098;13.716;2023-03-14T05:03:56;2.77;;;1.20;;
7557;SDS011;3820;51.098;13.716;2023-03-14T05:06:23;3.47;;;1.00;;
7557;SDS011;3820;51.098;13.716;2023-03-14T05:08:49;1.73;;;1.00;;
7557;SDS011;3820;51.098;13.716;2023-03-14T05:11:16;2.33;;;1.30;;
7557;SDS011;3820;51.098;13.716;2023-03-14T05:13:43;3.83;;;1.20;;
7557;SDS011;3820;51.098;13.716;2023-03-14T05:16:10;4.40;;;2.00;;
7557;SDS011;3820;51.098;13.716;2023-03-14T05:18:37;4.67;;;1.70;;
7557;SDS011;3820;51.098;13.716;2023-03-14T05:21:03;5.00;;;1.40;;
7557;SDS011;3820;51.098;13.716;2023-03-14T05:23:30;2.70;;;1.20;;
7557;SDS011;3820;51.098;13.716;2023-03-14T05:25:57;5.73;;;1.30;;
7557;SDS011;3820;51.098;13.716;2023-03-14T05:28:23;4.10;;;1.23;;
7557;SDS011;3820;51.098;13.716;2023-03-14T05:30:50;3.10;;;1.10;;
7557;SDS011;3820;51.098;13.716;2023-03-14T05:33:16;3.87;;;1.17;;
7557;SDS011;3820;51.098;13.716;2023-03-14T05:35:44;4.77;;;1.43;;
7557;SDS011;3820;51.098;13.716;2023-03-14T05:38:10;4.43;;;1.20;;
7557;SDS011;3820;51.098;13.716;2023-03-14T05:40:37;3.37;;;1.07;;
7557;SDS011;3820;51.098;13.716;2023-03-14T05:43:03;4.43;;;1.40;;
7557;SDS011;3820;51.098;13.716;2023-03-14T05:45:30;3.40;;;1.23;;
7557;SDS011;3820;51.098;13.716;2023-03-14T05:47:59;4.40;;;1.57;;
7557;SDS011;3820;51.098;13.716;2023-03-14T05:50:26;3.43;;;1.30;;
7557;SDS011;3820;51.098;13.716;2023-03-14T05:52:52;3.53;;;1.30;;
7557;SDS011;3820;51.098;13.716;2023-03-14T05:55:19;6.43;;;1.57;;
7557;SDS011;3820;51.098;13.716;2023-03-14T05:57:46;4.67;;;1.40;;
7557;SDS011;3820;51.098;13.716;2023-03-14T06:00:12;2.43;;;1.00;;
7557;SDS011;3820;51.098;13.716;2023-03-14T06:02:39;2.80;;;1.40;;
7557;SDS011;3820;51.098;13.716;2023-03-14T06:05:06;5.23;;;1.57;;
7557;SDS011;3820;51.098;13.716;2023-03-14T06:07:33;5.57;;;1.43;;
7557;SDS011;3820;51.098;13.716;2023-03-14T06:10:00;6.63;;;1.63;;
7557;SDS011;3820;51.098;13.716;2023-03-14T06:12:26;7.73;;;1.60;;
7557;SDS011;3820;51.098;13.716;2023-03-14T06:14:53;4.03;;;1.80;;
7557;SDS011;3820;51.098;13.716;2023-03-14T06:17:19;4.53;;;1.50;;
7557;SDS011;3820;51.098;13.716;2023-03-14T06:19:46;6.37;;;1.40;;
7557;SDS011;3820;51.098;13.716;2023-03-14T06:22:12;3.93;;;1.50;;
7557;SDS011;3820;51.098;13.716;2023-03-14T06:24:39;8.20;;;1.53;;
7557;SDS011;3820;51.098;13.716;2023-03-14T06:27:06;6.10;;;1.67;;
7557;SDS011;3820;51.098;13.716;2023-03-14T06:29:32;4.03;;;1.43;;
7557;SDS011;3820;51.098;13.716;2023-03-14T06:31:59;7.03;;;1.93;;
7557;SDS011;3820;51.098;13.716;2023-03-14T06:34:26;5.43;;;1.43;;
7557;SDS011;3820;51.098;13.716;2023-03-14T06:36:52;4.73;;;1.50;;
7557;SDS011;3820;51.098;13.716;2023-03-14T06:39:18;5.93;;;1.60;;
7557;SDS011;3820;51.098;13.716;2023-03-14T06:41:46;3.93;;;1.47;;
7557;SDS011;3820;51.098;13.716;2023-03-14T06:44:12;5.83;;;1.47;;
7557;SDS011;3820;51.098;13.716;2023-03-14T06:46:39;5.47;;;1.57;;
7557;SDS011;3820;51.098;13.716;2023-03-14T06:49:05;11.07;;;1.20;;
7557;SDS011;3820;51.098;13.716;2023-03-14T06:51:32;4.40;;;1.37;;
7557;SDS011;3820;51.098;13.716;2023-03-14T06:53:59;7.77;;;1.70;;
7557;SDS011;3820;51.098;13.716;2023-03-14T06:56:25;4.80;;;1.67;;
7557;SDS011;3820;51.098;13.716;2023-03-14T06:58:52;5.83;;;1.60;;
7557;SDS011;3820;51.098;13.716;2023-03-14T07:01:28;5.20;;;1.87;;
7557;SDS011;3820;51.098;13.716;2023-03-14T07:03:56;5.67;;;1.90;;
7557;SDS011;3820;51.098;13.716;2023-03-14T07:06:23;7.33;;;1.63;;
7557;SDS011;3820;51.098;13.716;2023-03-14T07:08:50;4.13;;;1.40;;
7557;SDS011;3820;51.098;13.716;2023-03-14T07:11:16;6.30;;;1.40;;
7557;SDS011;3820;51.098;13.716;2023-03-14T07:13:43;6.43;;;1.87;;
7557;SDS011;3820;51.098;13.716;2023-03-14T07:16:09;5.97;;;1.70;;
7557;SDS011;3820;51.098;13.716;2023-03-14T07:18:36;4.00;;;1.90;;
7557;SDS011;3820;51.098;13.716;2023-03-14T07:21:04;5.17;;;1.70;;
7557;SDS011;3820;51.098;13.716;2023-03-14T07:23:32;5.97;;;2.30;;
7557;SDS011;3820;51.098;13.716;2023-03-14T07:25:59;6.90;;;2.13;;
7557;SDS011;3820;51.098;13.716;2023-03-14T07:28:26;4.10;;;1.60;;
7557;SDS011;3820;51.098;13.716;2023-03-14T07:30:53;7.20;;;1.73;;
7557;SDS011;3820;51.098;13.716;2023-03-14T07:33:20;3.50;;;1.30;;
7557;SDS011;3820;51.098;13.716;2023-03-14T07:35:47;3.87;;;1.70;;
7557;SDS011;3820;51.098;13.716;2023-03-14T07:38:15;4.87;;;1.47;;
7557;SDS011;3820;51.098;13.716;2023-03-14T07:40:41;5.40;;;1.97;;
7557;SDS011;3820;51.098;13.716;2023-03-14T07:43:08;5.53;;;1.90;;
7557;SDS011;3820;51.098;13.716;2023-03-14T07:45:34;3.43;;;1.80;;
7557;SDS011;3820;51.098;13.716;2023-03-14T07:48:08;3.53;;;1.40;;
7557;SDS011;3820;51.098;13.716;2023-03-14T07:50:34;5.30;;;1.70;;
7557;SDS011;3820;51.098;13.716;2023-03-14T07:53:01;7.47;;;1.30;;
7557;SDS011;3820;51.098;13.716;2023-03-14T07:55:27;3.20;;;1.30;;
7557;SDS011;3820;51.098;13.716;2023-03-14T07:57:54;4.83;;;1.33;;
7557;SDS011;3820;51.098;13.716;2023-03-14T08:00:20;4.50;;;1.40;;
7557;SDS011;3820;51.098;13.716;2023-03-14T08:02:47;4.43;;;1.50;;
7557;SDS011;3820;51.098;13.716;2023-03-14T08:05:14;4.13;;;1.53;;
7557;SDS011;3820;51.098;13.716;2023-03-14T08:07:40;4.90;;;1.80;;
7557;SDS011;3820;51.098;13.716;2023-03-14T08:10:07;5.53;;;1.80;;
7557;SDS011;3820;51.098;13.716;2023-03-14T08:12:34;8.33;;;2.23;;
7557;SDS011;3820;51.098;13.716;2023-03-14T08:15:01;6.97;;;2.33;;
7557;SDS011;3820;51.098;13.716;2023-03-14T08:17:28;4.07;;;1.73;;
7557;SDS011;3820;51.098;13.716;2023-03-14T08:19:55;3.88;;;1.95;;
7557;SDS011;3820;51.098;13.716;2023-03-14T08:22:21;5.13;;;2.00;;
7557;SDS011;3820;51.098;13.716;2023-03-14T08:24:47;2.33;;;1.40;;
7557;SDS011;3820;51.098;13.716;2023-03-14T08:27:14;2.30;;;1.10;;
7557;SDS011;3820;51.098;13.716;2023-03-14T08:29:41;2.10;;;1.20;;
7557;SDS011;3820;51.098;13.716;2023-03-14T08:32:08;4.33;;;1.50;;
7557;SDS011;3820;51.098;13.716;2023-03-14T08:34:35;7.30;;;1.40;;
7557;SDS011;3820;51.098;13.716;2023-03-14T08:37:01;2.57;;;1.30;;
7557;SDS011;3820;51.098;13.716;2023-03-14T08:39:36;2.50;;;1.20;;
7557;SDS011;3820;51.098;13.716;2023-03-14T08:42:03;3.60;;;1.20;;
7557;SDS011;3820;51.098;13.716;2023-03-14T08:44:29;2.67;;;1.00;;
7557;SDS011;3820;51.098;13.716;2023-03-14T08:46:56;4.03;;;1.30;;
7557;SDS011;3820;51.098;13.716;2023-03-14T08:49:23;2.03;;;1.10;;
7557;SDS011;3820;51.098;13.716;2023-03-14T08:51:49;4.10;;;1.20;;
7557;SDS011;3820;51.098;13.716;2023-03-14T08:54:16;2.90;;;1.20;;
7557;SDS011;3820;51.098;13.716;2023-03-14T08:56:42;3.00;;;1.13;;
7557;SDS011;3820;51.098;13.716;2023-03-14T08:59:09;3.63;;;1.17;;
7557;SDS011;3820;51.098;13.716;2023-03-14T09:01:37;2.35;;;1.08;;
7557;SDS011;3820;51.098;13.716;2023-03-14T09:04:03;2.47;;;1.00;;
7557;SDS011;3820;51.098;13.716;2023-03-14T09:06:30;1.87;;;1.07;;
7557;SDS011;3820;51.098;13.716;2023-03-14T09:08:57;3.00;;;1.17;;
7557;SDS011;3820;51.098;13.716;2023-03-14T09:11:23;4.10;;;1.10;;
7557;SDS011;3820;51.098;13.716;2023-03-14T09:13:50;3.27;;;1.20;;
7557;SDS011;3820;51.098;13.716;2023-03-14T09:16:17;1.70;;;0.90;;
7557;SDS011;3820;51.098;13.716;2023-03-14T09:18:43;2.77;;;1.00;;
7557;SDS011;3820;51.098;13.716;2023-03-14T09:21:10;3.57;;;1.17;;
7557;SDS011;3820;51.098;13.716;2023-03-14T09:23:37;3.07;;;0.90;;
7557;SDS011;3820;51.098;13.716;2023-03-14T09:26:03;3.53;;;0.97;;
7557;SDS011;3820;51.098;13.716;2023-03-14T09:28:30;5.18;;;1.30;;
7557;SDS011;3820;51.098;13.716;2023-03-14T09:30:57;3.37;;;1.53;;
7557;SDS011;3820;51.098;13.716;2023-03-14T09:33:24;6.33;;;1.93;;
7557;SDS011;3820;51.098;13.716;2023-03-14T09:35:50;2.25;;;1.30;;
7557;SDS011;3820;51.098;13.716;2023-03-14T09:38:17;3.35;;;1.17;;
7557;SDS011;3820;51.098;13.716;2023-03-14T09:40:43;4.15;;;1.10;;
7557;SDS011;3820;51.098;13.716;2023-03-14T09:43:11;2.20;;;0.90;;
7557;SDS011;3820;51.098;13.716;2023-03-14T09:45:39;3.73;;;1.30;;
7557;SDS011;3820;51.098;13.716;2023-03-14T09:48:15;3.80;;;1.20;;
7557;SDS011;3820;51.098;13.716;2023-03-14T09:50:45;3.22;;;1.23;;
7557;SDS011;3820;51.098;13.716;2023-03-14T09:53:18;2.95;;;1.00;;
7557;SDS011;3820;51.098;13.716;2023-03-14T09:55:46;2.35;;;1.20;;
7557;SDS011;3820;51.098;13.716;2023-03-14T09:58:24;1.63;;;0.90;;
7557;SDS011;3820;51.098;13.716;2023-03-14T10:00:52;3.10;;;1.10;;
7557;SDS011;3820;51.098;13.716;2023-03-14T10:03:26;3.58;;;1.13;;
7557;SDS011;3820;51.098;13.716;2023-03-14T10:05:57;3.03;;;1.00;;
7557;SDS011;3820;51.098;13.716;2023-03-14T10:08:24;4.20;;;1.30;;
7557;SDS011;3820;51.098;13.716;2023-03-14T10:10:51;5.00;;;1.17;;
7557;SDS011;3820;51.098;13.716;2023-03-14T10:13:27;4.23;;;1.20;;
7557;SDS011;3820;51.098;13.716;2023-03-14T10:16:02;7.50;;;1.20;;
7557;SDS011;3820;51.098;13.716;2023-03-14T10:18:32;2.33;;;1.00;;
7557;SDS011;3820;51.098;13.716;2023-03-14T10:23:33;3.00;;;1.10;;
7557;SDS011;3820;51.098;13.716;2023-03-14T10:26:03;1.37;;;1.00;;
7557;SDS011;3820;51.098;13.716;2023-03-14T10:28:34;1.97;;;1.00;;
7557;SDS011;3820;51.098;13.716;2023-03-14T10:31:05;3.13;;;1.20;;
7557;SDS011;3820;51.098;13.716;2023-03-14T10:33:33;3.33;;;1.03;;
7557;SDS011;3820;51.098;13.716;2023-03-14T10:38:46;2.50;;;1.20;;
7557;SDS011;3820;51.098;13.716;2023-03-14T10:41:47;2.70;;;0.97;;
7557;SDS011;3820;51.098;13.716;2023-03-14T10:44:07;2.40;;;1.00;;
7557;SDS011;3820;51.098;13.716;2023-03-14T10:46:37;4.23;;;1.30;;
7557;SDS011;3820;51.098;13.716;2023-03-14T10:49:06;2.23;;;0.93;;
7557;SDS011;3820;51.098;13.716;2023-03-14T10:51:33;3.90;;;1.00;;
7557;SDS011;3820;51.098;13.716;2023-03-14T10:54:03;2.63;;;0.90;;
7557;SDS011;3820;51.098;13.716;2023-03-14T10:56:39;1.40;;;0.87;;
7557;SDS011;3820;51.098;13.716;2023-03-14T10:59:12;1.42;;;0.80;;
7557;SDS011;3820;51.098;13.716;2023-03-14T11:01:41;2.83;;;0.90;;
7557;SDS011;3820;51.098;13.716;2023-03-14T11:07:03;1.70;;;0.90;;
7557;SDS011;3820;51.098;13.716;2023-03-14T11:12:25;1.77;;;1.00;;
7557;SDS011;3820;51.098;13.716;2023-03-14T11:14:59;2.85;;;0.88;;
7557;SDS011;3820;51.098;13.716;2023-03-14T11:17:30;2.73;;;1.00;;
7557;SDS011;3820;51.098;13.716;2023-03-14T11:22:46;2.27;;;0.90;;
7557;SDS011;3820;51.098;13.716;2023-03-14T11:30:34;3.00;;;1.00;;
7557;SDS011;3820;51.098;13.716;2023-03-14T11:33:04;2.67;;;1.20;;
7557;SDS011;3820;51.098;13.716;2023-03-14T11:36:11;3.83;;;1.40;;
7557;SDS011;3820;51.098;13.716;2023-03-14T11:38:50;2.92;;;1.20;;
7557;SDS011;3820;51.098;13.716;2023-03-14T11:41:25;1.05;;;0.90;;
7557;SDS011;3820;51.098;13.716;2023-03-14T11:43:57;3.35;;;1.13;;
7557;SDS011;3820;51.098;13.716;2023-03-14T11:51:43;3.42;;;1.05;;
7557;SDS011;3820;51.098;13.716;2023-03-14T11:54:24;2.20;;;1.30;;
7557;SDS011;3820;51.098;13.716;2023-03-14T11:57:09;2.05;;;1.40;;
7557;SDS011;3820;51.098;13.716;2023-03-14T11:59:51;2.08;;;0.90;;
7557;SDS011;3820;51.098;13.716;2023-03-14T12:10:46;2.05;;;1.00;;
7557;SDS011;3820;51.098;13.716;2023-03-14T12:13:16;2.17;;;1.10;;
7557;SDS011;3820;51.098;13.716;2023-03-14T12:16:04;2.10;;;1.35;;
7557;SDS011;3820;51.098;13.716;2023-03-14T12:18:32;3.83;;;0.82;;
7557;SDS011;3820;51.098;13.716;2023-03-14T12:21:01;1.88;;;0.80;;
7557;SDS011;3820;51.098;13.716;2023-03-14T12:23:34;1.33;;;0.80;;
7557;SDS011;3820;51.098;13.716;2023-03-14T12:28:44;2.88;;;0.88;;
7557;SDS011;3820;51.098;13.716;2023-03-14T12:34:10;1.70;;;0.93;;
7557;SDS011;3820;51.098;13.716;2023-03-14T12:39:31;3.33;;;0.70;;
7557;SDS011;3820;51.098;13.716;2023-03-14T12:58:39;1.15;;;0.70;;
7557;SDS011;3820;51.098;13.716;2023-03-14T13:01:18;1.13;;;0.57;;
7557;SDS011;3820;51.098;13.716;2023-03-14T13:03:46;1.98;;;0.55;;
7557;SDS011;3820;51.098;13.716;2023-03-14T13:12:03;0.98;;;0.60;;
7557;SDS011;3820;51.098;13.716;2023-03-14T13:14:36;1.27;;;0.60;;
7557;SDS011;3820;51.098;13.716;2023-03-14T13:17:10;1.73;;;0.65;;
7557;SDS011;3820;51.098;13.716;2023-03-14T13:19:57;0.77;;;0.60;;
7557;SDS011;3820;51.098;13.716;2023-03-14T13:22:28;0.70;;;0.50;;
7557;SDS011;3820;51.098;13.716;2023-03-14T13:25:00;1.67;;;0.55;;
7557;SDS011;3820;51.098;13.716;2023-03-14T13:27:30;2.05;;;0.90;;
7557;SDS011;3820;51.098;13.716;2023-03-14T13:29:57;1.02;;;0.80;;
7557;SDS011;3820;51.098;13.716;2023-03-14T13:32:27;2.53;;;1.02;;
7557;SDS011;3820;51.098;13.716;2023-03-14T13:34:57;3.95;;;1.13;;
7557;SDS011;3820;51.098;13.716;2023-03-14T13:37:25;2.10;;;0.95;;
7557;SDS011;3820;51.098;13.716;2023-03-14T13:39:53;1.30;;;0.80;;
7557;SDS011;3820;51.098;13.716;2023-03-14T13:42:25;1.02;;;0.70;;
7557;SDS011;3820;51.098;13.716;2023-03-14T13:44:54;1.10;;;0.60;;
7557;SDS011;3820;51.098;13.716;2023-03-14T13:47:23;1.38;;;0.60;;
7557;SDS011;3820;51.098;13.716;2023-03-14T13:49:51;1.17;;;0.50;;
7557;SDS011;3820;51.098;13.716;2023-03-14T13:52:28;0.75;;;0.55;;
7557;SDS011;3820;51.098;13.716;2023-03-14T13:54:56;0.95;;;0.65;;
7557;SDS011;3820;51.098;13.716;2023-03-14T13:57:23;1.05;;;0.65;;
7557;SDS011;3820;51.098;13.716;2023-03-14T14:02:53;1.02;;;0.57;;
7557;SDS011;3820;51.098;13.716;2023-03-14T14:05:21;1.63;;;0.60;;
7557;SDS011;3820;51.098;13.716;2023-03-14T14:07:49;1.60;;;0.60;;
7557;SDS011;3820;51.098;13.716;2023-03-14T14:10:17;2.97;;;0.73;;
7557;SDS011;3820;51.098;13.716;2023-03-14T14:12:46;0.80;;;0.50;;
7557;SDS011;3820;51.098;13.716;2023-03-14T14:15:21;1.13;;;0.60;;
7557;SDS011;3820;51.098;13.716;2023-03-14T14:17:52;1.90;;;0.73;;
7557;SDS011;3820;51.098;13.716;2023-03-14T14:23:05;1.42;;;0.60;;
7557;SDS011;3820;51.098;13.716;2023-03-14T14:25:34;1.40;;;0.68;;
7557;SDS011;3820;51.098;13.716;2023-03-14T14:28:13;2.08;;;0.70;;
7557;SDS011;3820;51.098;13.716;2023-03-14T14:30:41;0.77;;;0.60;;
7557;SDS011;3820;51.098;13.716;2023-03-14T14:33:12;2.70;;;0.63;;
7557;SDS011;3820;51.098;13.716;2023-03-14T14:35:49;0.85;;;0.57;;
7557;SDS011;3820;51.098;13.716;2023-03-14T14:38:26;0.68;;;0.60;;
7557;SDS011;3820;51.098;13.716;2023-03-14T14:40:54;1.10;;;0.60;;
7557;SDS011;3820;51.098;13.716;2023-03-14T14:43:26;0.75;;;0.60;;
7557;SDS011;3820;51.098;13.716;2023-03-14T14:45:54;0.57;;;0.50;;
7557;SDS011;3820;51.098;13.716;2023-03-14T14:48:22;0.60;;;0.50;;
7557;SDS011;3820;51.098;13.716;2023-03-14T14:50:59;0.70;;;0.60;;
7557;SDS011;3820;51.098;13.716;2023-03-14T14:55:58;1.20;;;0.50;;
7557;SDS011;3820;51.098;13.716;2023-03-14T14:58:36;0.60;;;0.60;;
7557;SDS011;3820;51.098;13.716;2023-03-14T15:03:46;0.95;;;0.70;;
7557;SDS011;3820;51.098;13.716;2023-03-14T15:06:15;2.70;;;0.60;;
7557;SDS011;3820;51.098;13.716;2023-03-14T15:08:43;1.30;;;0.77;;
7557;SDS011;3820;51.098;13.716;2023-03-14T15:11:31;1.42;;;0.70;;
7557;SDS011;3820;51.098;13.716;2023-03-14T15:13:57;2.55;;;0.70;;
7557;SDS011;3820;51.098;13.716;2023-03-14T15:16:26;1.40;;;0.70;;
7557;SDS011;3820;51.098;13.716;2023-03-14T15:18:55;0.90;;;0.80;;
7557;SDS011;3820;51.098;13.716;2023-03-14T15:21:24;1.02;;;0.60;;
7557;SDS011;3820;51.098;13.716;2023-03-14T15:23:53;1.20;;;0.70;;
7557;SDS011;3820;51.098;13.716;2023-03-14T15:26:21;1.40;;;0.90;;
7557;SDS011;3820;51.098;13.716;2023-03-14T15:28:49;1.48;;;0.80;;
7557;SDS011;3820;51.098;13.716;2023-03-14T15:31:16;0.87;;;0.50;;
7557;SDS011;3820;51.098;13.716;2023-03-14T15:33:44;0.87;;;0.60;;
7557;SDS011;3820;51.098;13.716;2023-03-14T15:36:25;0.67;;;0.67;;
7557;SDS011;3820;51.098;13.716;2023-03-14T15:38:53;3.05;;;0.85;;
7557;SDS011;3820;51.098;13.716;2023-03-14T15:41:21;1.15;;;0.82;;
7557;SDS011;3820;51.098;13.716;2023-03-14T15:43:48;1.30;;;1.00;;
7557;SDS011;3820;51.098;13.716;2023-03-14T15:46:15;1.37;;;0.90;;
7557;SDS011;3820;51.098;13.716;2023-03-14T15:48:46;0.70;;;0.60;;
7557;SDS011;3820;51.098;13.716;2023-03-14T15:51:13;1.87;;;0.77;;
7557;SDS011;3820;51.098;13.716;2023-03-14T15:53:40;1.83;;;0.90;;
7557;SDS011;3820;51.098;13.716;2023-03-14T15:56:13;1.67;;;0.80;;
7557;SDS011;3820;51.098;13.716;2023-03-14T15:58:42;1.30;;;0.80;;
7557;SDS011;3820;51.098;13.716;2023-03-14T16:01:13;0.55;;;0.55;;
7557;SDS011;3820;51.098;13.716;2023-03-14T16:03:42;2.20;;;0.90;;
7557;SDS011;3820;51.098;13.716;2023-03-14T16:06:11;1.33;;;0.87;;
7557;SDS011;3820;51.098;13.716;2023-03-14T16:08:38;1.37;;;0.70;;
7557;SDS011;3820;51.098;13.716;2023-03-14T16:11:04;1.63;;;0.87;;
7557;SDS011;3820;51.098;13.716;2023-03-14T16:13:31;1.10;;;0.80;;
7557;SDS011;3820;51.098;13.716;2023-03-14T16:15:59;4.20;;;0.60;;
7557;SDS011;3820;51.098;13.716;2023-03-14T16:18:27;0.70;;;0.60;;
7557;SDS011;3820;51.098;13.716;2023-03-14T16:20:56;1.87;;;0.63;;
7557;SDS011;3820;51.098;13.716;2023-03-14T16:23:25;1.30;;;1.20;;
7557;SDS011;3820;51.098;13.716;2023-03-14T16:25:52;2.10;;;0.70;;
7557;SDS011;3820;51.098;13.716;2023-03-14T16:28:19;0.77;;;0.70;;